Time;durP1;ratioP1;P1;durP2;ratioP2;P2;SDS_P1;SDS_P2;PMS_P1;PMS_P2;Temp;Humidity;BMP_temperature;BMP_pressure;BME280_temperature;BME280_humidity;BME280_pressure;Samples;Min_cycle;Max_cycle;Signal;HPM_P1;HPM_P2
2023/01/14 00:01:43;;;;;;;8.07;2.73;;;6.80;91.00;;;;;;5049069;28;20194;-78
2023/01/14 00:04:09;;;;;;;3.83;2.47;;;6.80;46.60;;;;;;5048473;28;20208;-78
2023/01/14 00:06:37;;;;;;;4.87;1.80;;;6.90;28.80;;;;;;5050086;28;20182;-78
2023/01/14 00:09:06;;;;;;;8.23;2.17;;;6.90;26.20;;;;;;5049098;28;20671;-79
2023/01/14 00:11:47;;;;;;;2.90;1.90;;;6.80;21.10;;;;;;5049880;28;20201;-78
2023/01/14 00:14:22;;;;;;;5.03;1.97;;;6.80;26.10;;;;;;5049582;28;20178;-78
2023/01/14 00:16:54;;;;;;;5.57;2.27;;;6.70;26.00;;;;;;5049050;28;20553;-78
2023/01/14 00:19:21;;;;;;;4.87;1.97;;;6.80;18.00;;;;;;5048127;28;20197;-78
2023/01/14 00:21:46;;;;;;;6.18;2.22;;;6.80;14.50;;;;;;5047219;28;20449;-78
2023/01/14 00:24:13;;;;;;;5.13;2.20;;;6.70;15.00;;;;;;5038886;28;20190;-78
2023/01/14 00:26:40;;;;;;;5.23;1.70;;;6.70;19.00;;;;;;5049579;28;20186;-78
2023/01/14 00:29:08;;;;;;;3.87;2.00;;;6.70;23.80;;;;;;5049273;28;20264;-78
2023/01/14 00:31:33;;;;;;;5.47;1.87;;;6.70;18.40;;;;;;5048007;28;20249;-78
2023/01/14 00:33:59;;;;;;;6.37;2.23;;;6.70;15.50;;;;;;5049171;28;20198;-78
2023/01/14 00:36:26;;;;;;;6.77;2.30;;;6.70;17.60;;;;;;5047686;28;20192;-78
2023/01/14 00:38:53;;;;;;;6.90;1.83;;;6.70;14.90;;;;;;5048393;28;20189;-78
2023/01/14 00:41:22;;;;;;;8.70;2.33;;;6.70;16.70;;;;;;5046090;28;20578;-78
2023/01/14 00:43:53;;;;;;;7.33;1.70;;;6.70;17.80;;;;;;5056145;28;20949;-78
2023/01/14 00:46:21;;;;;;;5.80;2.03;;;6.80;11.90;;;;;;5048215;28;20718;-78
2023/01/14 00:48:47;;;;;;;5.57;1.90;;;6.80;9.30;;;;;;5046482;28;20206;-78
2023/01/14 00:51:14;;;;;;;6.87;1.97;;;6.80;14.40;;;;;;5046522;28;20278;-79
2023/01/14 00:53:41;;;;;;;5.47;1.70;;;6.90;6.60;;;;;;5044695;28;20182;-78
2023/01/14 00:56:08;;;;;;;6.00;1.80;;;6.90;8.50;;;;;;5044089;28;20648;-78
2023/01/14 00:58:33;;;;;;;5.10;1.80;;;6.90;1.00;;;;;;5046159;28;20259;-78
2023/01/14 01:00:59;;;;;;;5.50;1.83;;;6.90;1.00;;;;;;5047115;28;20753;-79
2023/01/14 01:03:25;;;;;;;6.07;1.67;;;7.00;1.00;;;;;;5045764;28;20182;-78
2023/01/14 01:05:51;;;;;;;5.10;2.17;;;7.00;1.00;;;;;;5045805;28;20194;-79
2023/01/14 01:08:19;;;;;;;4.77;1.67;;;7.00;1.00;;;;;;5046805;28;20234;-78
2023/01/14 01:10:46;;;;;;;3.60;1.40;;;7.10;1.00;;;;;;5037469;28;20972;-79
2023/01/14 01:13:12;;;;;;;3.87;1.57;;;7.10;1.00;;;;;;5046489;28;20806;-78
2023/01/14 01:15:39;;;;;;;3.17;1.50;;;7.10;1.00;;;;;;5052041;28;20264;-80
2023/01/14 01:18:05;;;;;;;4.43;1.47;;;7.10;1.00;;;;;;5050653;28;20214;-79
2023/01/14 01:20:32;;;;;;;3.57;1.40;;;7.10;1.00;;;;;;5049062;28;21118;-78
2023/01/14 01:22:58;;;;;;;5.90;1.70;;;7.10;1.00;;;;;;5049566;28;20196;-78
2023/01/14 01:25:23;;;;;;;4.83;1.60;;;7.20;1.00;;;;;;5051051;28;20182;-78
2023/01/14 01:27:50;;;;;;;5.10;1.73;;;7.20;1.00;;;;;;5049564;28;20229;-79
2023/01/14 01:30:16;;;;;;;6.43;1.70;;;7.20;1.00;;;;;;5050171;28;20272;-78
2023/01/14 01:32:41;;;;;;;3.83;1.57;;;7.20;1.00;;;;;;5046321;28;20703;-79
2023/01/14 01:35:07;;;;;;;5.53;1.80;;;7.20;1.00;;;;;;5049102;28;20210;-79
2023/01/14 01:37:33;;;;;;;3.20;1.57;;;7.30;1.00;;;;;;5049903;28;20186;-79
2023/01/14 01:39:59;;;;;;;5.73;1.97;;;7.20;1.00;;;;;;5049553;28;20212;-79
2023/01/14 01:42:28;;;;;;;4.37;1.80;;;7.20;1.00;;;;;;5049897;28;20281;-79
2023/01/14 01:44:53;;;;;;;3.97;1.40;;;7.30;1.00;;;;;;5047977;28;20190;-78
2023/01/14 01:47:21;;;;;;;3.40;1.50;;;7.20;1.00;;;;;;5035884;28;20183;-77
2023/01/14 01:49:47;;;;;;;3.70;1.60;;;7.30;1.00;;;;;;5045571;28;20250;-79
2023/01/14 01:52:18;;;;;;;5.10;1.67;;;7.30;1.00;;;;;;5048916;28;21304;-79
2023/01/14 01:54:51;;;;;;;3.47;2.00;;;7.30;1.00;;;;;;5048318;28;20190;-78
2023/01/14 01:57:17;;;;;;;2.93;1.10;;;7.20;1.00;;;;;;5049639;28;20182;-78
2023/01/14 01:59:48;;;;;;;6.60;1.83;;;7.20;1.00;;;;;;5049131;28;20205;-78
2023/01/14 02:02:15;;;;;;;6.80;1.60;;;7.20;1.00;;;;;;5051512;28;20413;-78
2023/01/14 02:04:41;;;;;;;4.37;1.60;;;7.10;1.00;;;;;;5050725;28;20193;-78
2023/01/14 02:07:33;;;;;;;4.17;1.80;;;7.00;1.00;;;;;;5050890;28;20186;-78
2023/01/14 02:10:03;;;;;;;6.07;1.70;;;7.00;1.00;;;;;;5063366;28;20182;-78
2023/01/14 02:12:36;;;;;;;3.73;1.60;;;7.00;1.00;;;;;;5049771;28;20548;-78
2023/01/14 02:15:08;;;;;;;5.53;1.70;;;6.90;1.00;;;;;;5056517;28;20728;-78
2023/01/14 02:18:15;;;;;;;5.03;1.47;;;6.90;1.00;;;;;;5044272;28;20284;-76
2023/01/14 02:20:47;;;;;;;4.77;1.40;;;6.90;1.00;;;;;;5049674;28;20282;-78
2023/01/14 02:23:29;;;;;;;7.10;2.13;;;6.80;1.00;;;;;;5050968;28;20221;-78
2023/01/14 02:26:30;;;;;;;5.93;1.80;;;6.80;1.00;;;;;;5049132;28;20228;-78
2023/01/14 02:29:24;;;;;;;3.73;1.70;;;6.80;1.00;;;;;;5040438;28;20206;-78
2023/01/14 02:32:15;;;;;;;7.50;1.60;;;6.90;1.00;;;;;;5049011;28;20683;-78
2023/01/14 02:35:13;;;;;;;5.10;1.53;;;6.90;1.00;;;;;;5038583;28;20873;-79
2023/01/14 02:38:12;;;;;;;4.03;1.70;;;6.90;1.00;;;;;;5047201;28;20187;-78
2023/01/14 02:41:00;;;;;;;3.93;1.80;;;7.00;1.00;;;;;;5048942;28;20190;-79
2023/01/14 02:44:16;;;;;;;7.03;1.63;;;7.00;1.00;;;;;;5048532;28;20660;-79
2023/01/14 02:46:31;;;;;;;5.97;2.00;;;7.10;1.00;;;;;;5042546;28;20264;-78
2023/01/14 02:48:59;;;;;;;3.70;1.33;;;7.00;1.00;;;;;;5048104;28;20206;-78
2023/01/14 02:51:25;;;;;;;5.67;2.17;;;7.00;1.00;;;;;;5048951;28;20214;-79
2023/01/14 02:53:51;;;;;;;5.43;1.60;;;7.00;1.00;;;;;;5049583;28;20563;-78
2023/01/14 02:56:16;;;;;;;2.37;1.43;;;7.00;1.00;;;;;;5049273;28;20197;-78
2023/01/14 02:58:43;;;;;;;5.80;1.50;;;7.10;1.00;;;;;;5049202;28;20786;-79
2023/01/14 03:01:26;;;;;;;5.27;1.40;;;7.00;1.00;;;;;;5048581;28;20218;-79
2023/01/14 03:04:29;;;;;;;7.07;1.57;;;7.00;1.00;;;;;;5049296;28;20793;-79
2023/01/14 03:07:15;;;;;;;6.23;1.40;;;6.90;1.00;;;;;;5048469;28;20190;-79
2023/01/14 03:10:12;;;;;;;5.20;1.57;;;6.90;1.00;;;;;;5035760;28;20214;-79
2023/01/14 03:12:57;;;;;;;7.33;1.47;;;6.80;1.00;;;;;;5048782;28;20182;-78
2023/01/14 03:15:45;;;;;;;4.93;1.50;;;6.80;1.00;;;;;;5048334;28;20214;-79
2023/01/14 03:18:41;;;;;;;5.17;1.60;;;6.80;1.00;;;;;;5046416;28;20588;-78
2023/01/14 03:21:12;;;;;;;4.80;1.70;;;6.90;1.00;;;;;;5048080;28;20821;-78
2023/01/14 03:23:47;;;;;;;4.63;1.30;;;6.90;1.00;;;;;;5048476;28;20186;-79
2023/01/14 03:26:15;;;;;;;7.47;1.73;;;6.90;1.00;;;;;;5048494;28;20188;-78
2023/01/14 03:28:49;;;;;;;7.10;1.57;;;6.90;1.00;;;;;;5047534;28;20210;-79
2023/01/14 03:31:21;;;;;;;6.13;1.57;;;6.90;1.00;;;;;;5048249;28;20212;-79
2023/01/14 03:33:51;;;;;;;5.30;1.53;;;6.90;1.00;;;;;;5048381;28;20242;-79
2023/01/14 03:36:18;;;;;;;5.30;2.03;;;6.90;1.00;;;;;;5047601;28;20826;-78
2023/01/14 03:39:00;;;;;;;6.40;2.03;;;6.90;1.00;;;;;;5048253;28;20210;-78
2023/01/14 03:44:17;;;;;;;6.67;1.50;;;6.90;1.00;;;;;;5048480;28;20735;-78
2023/01/14 03:46:43;;;;;;;7.60;1.50;;;6.90;1.00;;;;;;5047560;28;20243;-79
2023/01/14 03:49:09;;;;;;;2.87;1.10;;;7.00;1.00;;;;;;5048556;28;20762;-78
2023/01/14 03:51:54;;;;;;;5.40;1.50;;;7.00;1.00;;;;;;5048341;28;20205;-79
2023/01/14 03:54:23;;;;;;;6.47;1.87;;;7.00;1.00;;;;;;5048405;28;20178;-77
2023/01/14 03:57:13;;;;;;;5.73;1.50;;;7.00;1.00;;;;;;5047645;28;20182;-78
2023/01/14 03:59:55;;;;;;;6.17;1.80;;;7.00;1.00;;;;;;5037011;28;20195;-78
2023/01/14 04:02:23;;;;;;;4.87;1.80;;;7.10;1.00;;;;;;5046980;28;20197;-78
2023/01/14 04:04:50;;;;;;;6.27;1.63;;;7.00;1.00;;;;;;5048721;28;20253;-79
2023/01/14 04:07:16;;;;;;;4.63;1.63;;;7.00;1.00;;;;;;5047987;28;20182;-79
2023/01/14 04:09:41;;;;;;;6.20;1.50;;;7.00;1.00;;;;;;5047921;28;20207;-79
2023/01/14 04:12:07;;;;;;;6.67;2.53;;;7.00;1.00;;;;;;5047086;28;20217;-78
2023/01/14 04:17:17;;;;;;;5.27;1.80;;;7.00;1.00;;;;;;5047825;28;20224;-79
2023/01/14 04:19:43;;;;;;;7.10;1.80;;;7.00;1.00;;;;;;5048169;28;20198;-78
2023/01/14 04:22:08;;;;;;;3.50;1.70;;;7.00;1.00;;;;;;5048717;28;20214;-78
2023/01/14 04:24:34;;;;;;;7.30;2.50;;;7.00;1.00;;;;;;5047433;28;20178;-79
2023/01/14 04:26:59;;;;;;;5.07;2.13;;;6.90;1.00;;;;;;5047255;28;20269;-75
2023/01/14 04:29:25;;;;;;;7.83;2.33;;;7.00;1.00;;;;;;5048387;28;20396;-78
2023/01/14 04:31:50;;;;;;;5.03;2.00;;;6.90;1.00;;;;;;5048516;28;20639;-78
2023/01/14 04:34:16;;;;;;;7.80;2.27;;;6.90;1.00;;;;;;5046102;28;20240;-79
2023/01/14 04:36:42;;;;;;;7.83;2.73;;;6.90;1.00;;;;;;5047858;28;20187;-79
2023/01/14 04:39:07;;;;;;;7.47;2.87;;;6.90;1.00;;;;;;5047154;28;20222;-78
2023/01/14 04:44:17;;;;;;;8.50;2.47;;;6.80;1.00;;;;;;5047299;28;20182;-77
2023/01/14 04:46:42;;;;;;;9.10;3.33;;;6.80;1.00;;;;;;5046905;28;20182;-78
2023/01/14 04:49:08;;;;;;;6.93;2.87;;;6.80;1.00;;;;;;5045820;28;20206;-79
2023/01/14 04:51:33;;;;;;;13.27;3.17;;;6.80;1.00;;;;;;5047346;28;20857;-81
2023/01/14 04:53:59;;;;;;;7.63;2.93;;;6.80;1.00;;;;;;5046403;28;20183;-79
2023/01/14 04:56:25;;;;;;;8.17;2.57;;;6.70;1.00;;;;;;5046649;28;20534;-79
2023/01/14 04:58:50;;;;;;;11.10;2.83;;;6.70;1.00;;;;;;5047597;28;20698;-79
2023/01/14 05:01:16;;;;;;;6.23;2.43;;;6.70;1.00;;;;;;5047240;28;20186;-79
2023/01/14 05:03:41;;;;;;;9.17;2.53;;;6.60;1.00;;;;;;5048085;28;20187;-78
2023/01/14 05:06:07;;;;;;;6.97;2.67;;;6.50;1.00;;;;;;5046415;28;20222;-80
2023/01/14 05:08:32;;;;;;;9.60;2.67;;;6.40;1.00;;;;;;5047400;28;20260;-77
2023/01/14 05:10:58;;;;;;;8.83;2.87;;;6.30;1.00;;;;;;5047426;28;20270;-78
2023/01/14 05:13:24;;;;;;;9.87;2.90;;;6.30;1.00;;;;;;5047849;28;20186;-78
2023/01/14 05:15:49;;;;;;;5.47;2.70;;;6.30;1.00;;;;;;5045443;28;20265;-79
2023/01/14 05:18:15;;;;;;;7.53;2.60;;;6.20;1.00;;;;;;5046520;28;20307;-78
2023/01/14 05:20:42;;;;;;;7.30;3.03;;;6.20;1.00;;;;;;5046635;28;20190;-78
2023/01/14 05:23:13;;;;;;;12.00;4.37;;;6.20;1.00;;;;;;5046629;28;20772;-79
2023/01/14 05:25:39;;;;;;;5.97;2.93;;;6.10;1.00;;;;;;5044192;28;20187;-78
2023/01/14 05:28:09;;;;;;;8.67;3.23;;;6.10;1.00;;;;;;5045625;28;20264;-78
2023/01/14 05:30:34;;;;;;;9.13;2.97;;;6.10;3.60;;;;;;5046067;28;22074;-78
2023/01/14 05:33:00;;;;;;;11.13;2.90;;;6.20;1.00;;;;;;5045559;28;20328;-77
2023/01/14 05:35:25;;;;;;;8.67;3.33;;;6.20;1.00;;;;;;5046000;28;20210;-77
2023/01/14 05:37:51;;;;;;;9.00;2.97;;;6.20;1.00;;;;;;5045754;28;20682;-78
2023/01/14 05:40:17;;;;;;;9.33;3.40;;;6.20;1.00;;;;;;5046051;28;20213;-78
2023/01/14 05:45:48;;;;;;;13.90;3.07;;;6.40;1.00;;;;;;5046350;28;20225;-78
2023/01/14 05:48:21;;;;;;;9.43;2.93;;;6.40;1.00;;;;;;5046284;28;20217;-79
2023/01/14 05:50:51;;;;;;;12.47;3.00;;;6.40;1.00;;;;;;5047012;28;20263;-78
2023/01/14 05:53:17;;;;;;;9.20;2.80;;;6.40;1.00;;;;;;5045046;28;20276;-78
2023/01/14 05:55:44;;;;;;;8.77;2.73;;;6.20;1.00;;;;;;5044577;28;20747;-79
2023/01/14 05:58:10;;;;;;;12.87;3.20;;;6.20;1.00;;;;;;5046205;28;20197;-78
2023/01/14 06:06:23;;;;;;;12.60;3.07;;;6.20;1.00;;;;;;5049910;28;20239;-78
2023/01/14 06:09:01;;;;;;;10.67;2.70;;;6.30;1.00;;;;;;5048966;28;20201;-78
2023/01/14 06:11:28;;;;;;;13.67;3.20;;;6.40;1.00;;;;;;5048561;28;21588;-78
2023/01/14 06:13:57;;;;;;;6.87;2.63;;;6.40;1.00;;;;;;5049043;28;20193;-79
2023/01/14 06:16:27;;;;;;;7.47;2.77;;;6.40;1.00;;;;;;5049501;28;20178;-78
2023/01/14 06:18:56;;;;;;;9.27;2.80;;;6.40;1.00;;;;;;5049674;28;20194;-78
2023/01/14 06:21:30;;;;;;;11.80;2.70;;;6.30;1.00;;;;;;5051306;28;20210;-78
2023/01/14 06:23:56;;;;;;;11.10;2.90;;;6.30;1.00;;;;;;5051522;28;20185;-78
2023/01/14 06:26:28;;;;;;;10.17;3.03;;;6.30;1.00;;;;;;5057607;28;20191;-78
2023/01/14 06:29:01;;;;;;;11.60;4.03;;;6.20;1.00;;;;;;5050059;28;20540;-78
2023/01/14 06:31:27;;;;;;;8.97;2.47;;;6.20;1.00;;;;;;5050202;28;20218;-78
2023/01/14 06:33:55;;;;;;;9.70;2.27;;;6.20;1.00;;;;;;5050332;28;20690;-78
2023/01/14 06:36:22;;;;;;;6.67;2.43;;;6.10;1.00;;;;;;5049686;28;20580;-78
2023/01/14 06:38:47;;;;;;;6.83;2.67;;;6.10;1.00;;;;;;5050543;28;20197;-78
2023/01/14 06:41:13;;;;;;;9.30;2.20;;;6.20;1.00;;;;;;5049684;28;20209;-78
2023/01/14 06:43:41;;;;;;;10.17;2.23;;;6.30;1.00;;;;;;5048823;28;20260;-78
2023/01/14 06:46:08;;;;;;;7.73;2.10;;;6.30;1.00;;;;;;5049893;28;21023;-78
2023/01/14 06:48:34;;;;;;;9.63;2.67;;;6.30;1.00;;;;;;5050417;28;20226;-78
2023/01/14 06:51:08;;;;;;;8.33;2.37;;;6.30;1.00;;;;;;5049845;28;20256;-78
2023/01/14 06:53:34;;;;;;;9.87;2.27;;;6.30;1.00;;;;;;5050705;28;20194;-78
2023/01/14 06:56:01;;;;;;;6.87;2.43;;;6.30;1.00;;;;;;5050385;28;20224;-78
2023/01/14 06:58:26;;;;;;;9.83;2.33;;;6.40;1.00;;;;;;5050450;28;20202;-78
2023/01/14 07:00:55;;;;;;;13.00;2.43;;;6.40;1.00;;;;;;5050727;28;20244;-78
2023/01/14 07:03:20;;;;;;;8.40;2.37;;;6.40;1.00;;;;;;5049909;28;20244;-78
2023/01/14 07:05:46;;;;;;;9.17;2.13;;;6.40;1.00;;;;;;5049827;28;20183;-78
2023/01/14 07:08:11;;;;;;;8.80;2.13;;;6.40;1.00;;;;;;5047208;28;20848;-76
2023/01/14 07:10:37;;;;;;;6.97;1.97;;;6.40;1.00;;;;;;5046660;28;20196;-77
2023/01/14 07:13:03;;;;;;;7.37;2.20;;;6.40;1.00;;;;;;5048303;28;20180;-78
2023/01/14 07:15:28;;;;;;;12.07;3.77;;;6.40;1.00;;;;;;5047090;28;20666;-79
2023/01/14 07:17:54;;;;;;;16.07;7.37;;;6.50;1.00;;;;;;5048131;28;21004;-78
2023/01/14 07:20:19;;;;;;;16.77;7.03;;;6.50;1.00;;;;;;5048721;28;20612;-78
2023/01/14 07:22:45;;;;;;;14.90;6.87;;;6.60;1.00;;;;;;5049640;28;20269;-78
2023/01/14 07:25:11;;;;;;;15.07;6.83;;;6.60;1.00;;;;;;5048658;28;20190;-78
2023/01/14 07:27:36;;;;;;;12.97;4.37;;;6.60;1.00;;;;;;5045909;28;20282;-78
2023/01/14 07:30:03;;;;;;;12.30;5.30;;;6.50;1.00;;;;;;5043167;28;20259;-77
2023/01/14 07:32:32;;;;;;;11.43;3.07;;;6.50;1.00;;;;;;5042419;28;20221;-78
2023/01/14 07:34:57;;;;;;;9.70;3.57;;;6.50;1.00;;;;;;5046475;28;20649;-78
2023/01/14 07:37:23;;;;;;;7.63;2.50;;;6.40;1.00;;;;;;5044577;28;20197;-78
2023/01/14 07:39:49;;;;;;;7.27;2.07;;;6.30;1.00;;;;;;5042774;28;20561;-78
2023/01/14 07:42:19;;;;;;;11.43;3.30;;;6.20;1.00;;;;;;5042037;28;20224;-77
2023/01/14 07:44:45;;;;;;;10.83;2.97;;;6.20;1.00;;;;;;5045089;28;20208;-78
2023/01/14 07:47:11;;;;;;;7.73;2.60;;;6.10;1.00;;;;;;5042775;28;20683;-78
2023/01/14 07:49:39;;;;;;;10.23;2.37;;;6.20;1.00;;;;;;5044850;28;20271;-78
2023/01/14 07:52:05;;;;;;;6.67;2.40;;;6.20;1.00;;;;;;5041550;28;20263;-78
2023/01/14 07:54:31;;;;;;;10.93;2.50;;;6.10;1.00;;;;;;5042555;28;20174;-75
2023/01/14 07:56:57;;;;;;;11.63;2.60;;;6.10;1.00;;;;;;5044681;28;20189;-81
2023/01/14 07:59:22;;;;;;;7.97;2.33;;;6.10;1.00;;;;;;5043361;28;20198;-80
2023/01/14 08:01:48;;;;;;;7.47;2.10;;;6.10;1.00;;;;;;5046188;28;20273;-78
2023/01/14 08:04:13;;;;;;;7.93;2.00;;;6.20;1.00;;;;;;5046013;28;20217;-79
2023/01/14 08:06:39;;;;;;;11.87;2.50;;;6.20;1.00;;;;;;5043307;28;20248;-79
2023/01/14 08:09:05;;;;;;;8.23;2.23;;;6.10;1.00;;;;;;5044059;28;20233;-78
2023/01/14 08:11:32;;;;;;;6.57;2.50;;;6.20;1.00;;;;;;5045692;28;20217;-78
2023/01/14 08:13:57;;;;;;;7.83;2.23;;;6.20;1.00;;;;;;5043500;28;20492;-78
2023/01/14 08:16:23;;;;;;;6.90;2.43;;;6.20;1.00;;;;;;5043482;28;20802;-79
2023/01/14 08:18:49;;;;;;;10.13;3.37;;;6.20;1.00;;;;;;5042744;28;20564;-78
2023/01/14 08:21:15;;;;;;;10.30;2.73;;;6.30;1.00;;;;;;5041568;28;20186;-80
2023/01/14 08:23:40;;;;;;;6.70;1.70;;;6.30;1.00;;;;;;5041482;28;20214;-78
2023/01/14 08:26:08;;;;;;;9.13;2.10;;;6.30;1.00;;;;;;5042585;28;20220;-76
2023/01/14 08:28:35;;;;;;;9.00;2.30;;;6.30;1.00;;;;;;5039501;28;20209;-79
2023/01/14 08:31:12;;;;;;;9.27;2.10;;;6.30;1.00;;;;;;5041505;28;20804;-78
2023/01/14 08:33:40;;;;;;;5.97;1.93;;;6.30;1.00;;;;;;5044029;28;20190;-78
2023/01/14 08:36:14;;;;;;;6.93;2.50;;;6.30;1.00;;;;;;5044834;28;20224;-78
2023/01/14 08:38:44;;;;;;;8.67;2.17;;;6.30;1.00;;;;;;5040789;28;20193;-78
2023/01/14 08:41:12;;;;;;;7.83;2.47;;;6.30;1.00;;;;;;5043151;28;20178;-79
2023/01/14 08:43:39;;;;;;;7.93;2.00;;;6.40;1.00;;;;;;5042839;28;20197;-78
2023/01/14 08:46:06;;;;;;;7.87;2.00;;;6.40;1.00;;;;;;5041836;28;20204;-79
2023/01/14 08:48:32;;;;;;;7.07;2.17;;;7.10;1.00;;;;;;5041220;28;20218;-79
2023/01/14 08:51:01;;;;;;;10.63;2.70;;;6.50;1.00;;;;;;5039522;28;20205;-77
2023/01/14 08:53:31;;;;;;;6.60;2.00;;;6.60;1.00;;;;;;5038998;28;20550;-79
2023/01/14 08:55:58;;;;;;;8.47;2.40;;;6.60;1.00;;;;;;5044403;28;20171;-79
2023/01/14 08:58:24;;;;;;;10.57;2.30;;;6.60;1.00;;;;;;5043803;28;20622;-80
2023/01/14 09:00:55;;;;;;;10.37;2.47;;;6.60;1.00;;;;;;5044630;28;20175;-79
2023/01/14 09:03:20;;;;;;;9.30;1.90;;;6.70;1.00;;;;;;5043932;28;20218;-80
2023/01/14 09:05:46;;;;;;;6.40;1.63;;;6.70;1.00;;;;;;5044885;28;20225;-79
2023/01/14 09:19:12;;;;;;;11.23;3.00;;;6.70;1.00;;;;;;5147667;22;20248;-80
2023/01/14 09:21:38;;;;;;;9.47;2.90;;;6.80;1.00;;;;;;5065058;28;20186;-81
2023/01/14 09:24:04;;;;;;;9.23;2.70;;;6.90;1.00;;;;;;5063690;28;20199;-81
2023/01/14 09:26:30;;;;;;;9.10;2.63;;;6.90;1.00;;;;;;5065426;28;20182;-82
2023/01/14 09:28:55;;;;;;;12.23;3.13;;;6.90;1.00;;;;;;5052074;28;20206;-81
2023/01/14 09:31:21;;;;;;;9.67;3.00;;;6.90;1.00;;;;;;5046560;28;20205;-82
2023/01/14 09:33:47;;;;;;;10.40;3.43;;;6.90;1.00;;;;;;5045070;28;20175;-82
2023/01/14 09:36:12;;;;;;;9.13;3.40;;;6.90;1.00;;;;;;5045436;28;20182;-81
2023/01/14 09:38:38;;;;;;;11.90;4.17;;;6.90;1.00;;;;;;5063536;28;20206;-82
2023/01/14 09:41:03;;;;;;;10.77;2.60;;;6.90;1.00;;;;;;5047891;28;20194;-80
2023/01/14 09:43:30;;;;;;;9.57;2.53;;;6.90;1.00;;;;;;5049392;28;20190;-83
2023/01/14 09:46:00;;;;;;;9.93;3.50;;;7.00;1.00;;;;;;5048785;28;20597;-81
2023/01/14 09:48:29;;;;;;;12.67;3.50;;;7.00;1.00;;;;;;5048732;28;20217;-81
2023/01/14 09:51:13;;;;;;;18.17;6.97;;;7.00;1.00;;;;;;5047337;28;20214;-82
2023/01/14 09:54:04;;;;;;;11.37;3.87;;;7.00;1.00;;;;;;5046751;28;20179;-82
2023/01/14 09:56:57;;;;;;;9.13;3.07;;;7.10;1.00;;;;;;5048397;28;20189;-82
2023/01/14 09:59:22;;;;;;;7.63;3.10;;;7.10;1.00;;;;;;5046141;28;20217;-81
2023/01/14 10:02:17;;;;;;;9.50;3.43;;;7.10;1.00;;;;;;5046800;28;20187;-82
2023/01/14 10:05:16;;;;;;;10.33;3.17;;;7.10;1.00;;;;;;5045884;28;20187;-83
2023/01/14 10:07:42;;;;;;;9.77;4.40;;;7.20;1.00;;;;;;5047480;28;20196;-81
2023/01/14 10:10:24;;;;;;;11.10;3.63;;;7.20;1.00;;;;;;5044719;28;20761;-81
2023/01/14 10:12:52;;;;;;;12.47;3.37;;;7.20;1.00;;;;;;5048687;28;21296;-82
2023/01/14 10:15:17;;;;;;;10.37;3.47;;;7.30;1.00;;;;;;5046699;28;20530;-82
2023/01/14 10:17:53;;;;;;;12.10;2.63;;;7.60;1.00;;;;;;5048369;28;21624;-81
2023/01/14 10:20:26;;;;;;;12.17;3.40;;;7.40;1.00;;;;;;5047386;28;20789;-81
2023/01/14 10:23:02;;;;;;;9.90;3.30;;;7.30;1.00;;;;;;5046730;28;20199;-81
2023/01/14 10:25:28;;;;;;;10.73;3.27;;;7.40;1.00;;;;;;5047359;28;20240;-81
2023/01/14 10:27:57;;;;;;;9.23;2.67;;;7.50;1.00;;;;;;5047217;28;20205;-82
2023/01/14 10:30:34;;;;;;;10.27;3.33;;;7.40;1.00;;;;;;5064229;28;20644;-81
2023/01/14 10:33:05;;;;;;;8.17;3.07;;;7.50;1.00;;;;;;5063073;28;20666;-81
2023/01/14 10:35:37;;;;;;;7.47;2.30;;;7.40;1.00;;;;;;5061785;28;20204;-80
2023/01/14 10:38:03;;;;;;;9.43;3.47;;;7.40;1.00;;;;;;5045369;28;20244;-80
2023/01/14 10:40:29;;;;;;;8.07;2.50;;;7.40;1.00;;;;;;5048051;28;20186;-82
2023/01/14 10:42:57;;;;;;;8.90;2.13;;;7.40;1.00;;;;;;5043833;28;20210;-81
2023/01/14 10:45:22;;;;;;;9.97;2.63;;;7.40;1.00;;;;;;5048563;28;20648;-82
2023/01/14 10:47:53;;;;;;;9.70;2.60;;;7.40;1.00;;;;;;5045432;28;20206;-81
2023/01/14 12:34:09;;;;;;;8.07;1.50;;;7.40;1.00;;;;;;5245896;23;20235;-82
2023/01/14 12:36:54;;;;;;;6.33;2.17;;;7.40;1.00;;;;;;5022457;28;20203;-82
2023/01/14 12:45:46;;;;;;;55.20;17.73;;;7.50;1.00;;;;;;5006926;28;20257;-81
2023/01/14 12:48:15;;;;;;;45.50;16.10;;;7.50;1.00;;;;;;5004259;28;20237;-83
2023/01/14 12:50:51;;;;;;;59.17;29.63;;;7.50;1.00;;;;;;5006370;28;20198;-84
2023/01/14 12:53:22;;;;;;;11.43;3.40;;;7.50;1.00;;;;;;5004512;28;20690;-82
2023/01/14 12:55:53;;;;;;;19.90;6.67;;;7.40;1.00;;;;;;5006584;28;20210;-82
2023/01/14 12:58:24;;;;;;;10.00;2.80;;;7.40;1.00;;;;;;5006689;28;20187;-82
2023/01/14 13:00:54;;;;;;;9.93;3.00;;;7.40;1.00;;;;;;5006281;28;20183;-82
2023/01/14 13:03:52;;;;;;;54.63;20.83;;;7.40;1.00;;;;;;5004296;28;20230;-82
2023/01/14 13:06:25;;;;;;;13.53;6.63;;;7.30;1.00;;;;;;5005784;28;20195;-81
2023/01/14 13:08:54;;;;;;;9.53;5.13;;;7.30;5.70;;;;;;5006649;28;20179;-80
2023/01/14 13:11:36;;;;;;;15.77;8.17;;;7.30;22.90;;;;;;5010185;28;20326;-80
2023/01/14 13:14:04;;;;;;;13.17;8.00;;;7.20;18.40;;;;;;5012363;28;20214;-81
2023/01/14 13:16:40;;;;;;;11.67;7.10;;;7.30;22.20;;;;;;5008139;28;20191;-81
2023/01/14 13:19:24;;;;;;;6.77;2.30;;;7.20;42.10;;;;;;5008782;28;20187;-81
2023/01/14 13:22:10;;;;;;;7.23;3.30;;;7.70;53.80;;;;;;5009156;28;20253;-79
2023/01/14 13:24:37;;;;;;;9.93;5.17;;;7.20;60.40;;;;;;5009743;28;20665;-78
2023/01/14 13:27:34;;;;;;;7.13;2.67;;;7.20;78.30;;;;;;5008752;28;20176;-78
2023/01/14 13:30:18;;;;;;;5.93;2.27;;;7.20;28.70;;;;;;5008594;28;20243;-79
2023/01/14 13:33:14;;;;;;;5.17;2.23;;;7.30;22.30;;;;;;5010384;28;20212;-78
2023/01/14 13:35:40;;;;;;;8.77;5.37;;;7.30;30.20;;;;;;5009298;28;20215;-79
2023/01/14 13:38:30;;;;;;;6.60;5.53;;;7.30;23.70;;;;;;5009005;28;20188;-79
2023/01/14 13:41:06;;;;;;;2.67;1.57;;;7.30;20.60;;;;;;5008398;28;20238;-78
2023/01/14 13:43:35;;;;;;;1.20;1.10;;;7.30;16.10;;;;;;5002473;28;20211;-79
2023/01/14 13:46:04;;;;;;;6.77;5.57;;;7.30;1.00;;;;;;5010079;28;20198;-79
2023/01/14 13:48:56;;;;;;;4.93;4.13;;;7.30;8.50;;;;;;5009393;28;20233;-81
2023/01/14 13:51:38;;;;;;;3.30;1.23;;;7.30;10.60;;;;;;4996493;28;20473;-80
2023/01/14 13:54:11;;;;;;;5.57;1.70;;;7.30;14.70;;;;;;5013600;28;20226;-80
2023/01/14 13:56:43;;;;;;;3.00;1.40;;;7.20;28.90;;;;;;5010310;28;20184;-80
2023/01/14 13:59:20;;;;;;;4.43;1.10;;;6.80;41.20;;;;;;5009898;28;20691;-80
2023/01/14 14:01:47;;;;;;;3.30;1.33;;;7.20;42.80;;;;;;4999684;28;20734;-80
2023/01/14 14:04:33;;;;;;;1.40;0.90;;;7.10;45.60;;;;;;5016097;28;20238;-79
2023/01/14 14:07:00;;;;;;;3.60;1.40;;;7.10;49.80;;;;;;5008233;28;21390;-80
2023/01/14 14:09:42;;;;;;;3.90;1.43;;;7.10;62.20;;;;;;5007297;28;20233;-79
2023/01/14 14:15:20;;;;;;;2.13;1.53;;;7.10;68.80;;;;;;5008511;28;20248;-80
2023/01/14 14:17:51;;;;;;;3.17;1.30;;;7.00;80.60;;;;;;5005960;28;20192;-80
2023/01/14 14:20:18;;;;;;;2.07;1.33;;;7.00;99.60;;;;;;5001168;28;20191;-79
2023/01/14 14:22:49;;;;;;;1.13;0.83;;;7.00;99.90;;;;;;5002900;28;20215;-81
2023/01/14 14:25:25;;;;;;;1.20;0.60;;;7.10;83.10;;;;;;4995667;28;20188;-81
2023/01/14 14:27:52;;;;;;;1.90;0.70;;;7.20;36.80;;;;;;5008482;28;20737;-80
2023/01/14 14:30:29;;;;;;;1.70;0.53;;;7.20;76.30;;;;;;5002316;28;20547;-80
2023/01/14 14:32:54;;;;;;;1.07;0.60;;;7.20;48.30;;;;;;5013194;28;20207;-79
2023/01/14 14:35:22;;;;;;;1.60;0.57;;;7.20;35.60;;;;;;5006138;28;20207;-79
2023/01/14 14:37:55;;;;;;;2.07;1.57;;;7.20;48.30;;;;;;5008569;28;20191;-80
2023/01/14 14:40:37;;;;;;;1.63;1.13;;;7.10;59.30;;;;;;5007211;28;20576;-81
2023/01/14 14:43:04;;;;;;;2.07;1.30;;;7.20;49.70;;;;;;4999815;28;20215;-79
2023/01/14 14:45:32;;;;;;;1.53;0.70;;;7.10;62.30;;;;;;5022546;28;20183;-78
2023/01/14 14:47:59;;;;;;;0.97;0.60;;;7.10;97.10;;;;;;5004337;28;20184;-84
2023/01/14 14:50:30;;;;;;;1.17;1.00;;;7.00;99.90;;;;;;5006732;28;20270;-82
2023/01/14 14:52:56;;;;;;;0.97;0.63;;;7.10;99.90;;;;;;4999382;28;20412;-79
2023/01/14 14:55:21;;;;;;;2.07;1.90;;;7.10;99.90;;;;;;4999491;28;20210;-80
2023/01/14 14:57:47;;;;;;;1.40;1.30;;;7.20;93.70;;;;;;4998411;28;20218;-81
2023/01/14 15:00:19;;;;;;;2.40;0.90;;;7.30;89.30;;;;;;5003363;28;20186;-80
2023/01/14 15:02:46;;;;;;;1.63;0.90;;;7.30;90.40;;;;;;4996983;28;20211;-80
2023/01/14 15:05:34;;;;;;;1.07;0.67;;;7.30;93.10;;;;;;5003746;28;20230;-79
2023/01/14 15:08:10;;;;;;;2.00;0.87;;;7.40;92.10;;;;;;4994293;28;20203;-80
2023/01/14 15:10:37;;;;;;;2.10;0.97;;;7.50;72.30;;;;;;5001583;28;20274;-79
2023/01/14 15:13:03;;;;;;;1.60;0.97;;;7.50;67.40;;;;;;5014364;28;20249;-79
2023/01/14 15:15:30;;;;;;;1.17;0.80;;;7.60;78.80;;;;;;5007457;28;20180;-79
2023/01/14 15:18:40;;;;;;;5.37;4.10;;;7.60;79.20;;;;;;5005046;28;20214;-80
2023/01/14 15:21:08;;;;;;;1.00;0.50;;;7.60;95.20;;;;;;4974640;28;20608;-78
2023/01/14 15:23:38;;;;;;;3.53;3.13;;;7.60;96.40;;;;;;5015812;28;20225;-80
2023/01/14 15:26:24;;;;;;;3.53;2.73;;;7.50;99.90;;;;;;5008725;28;20192;-80
2023/01/14 15:28:50;;;;;;;1.70;1.47;;;7.60;99.90;;;;;;5007212;28;20253;-79
2023/01/14 15:31:27;;;;;;;0.87;0.77;;;7.60;99.90;;;;;;5007001;28;20192;-80
2023/01/14 15:34:20;;;;;;;4.13;2.27;;;7.60;99.90;;;;;;4998080;28;20289;-79
2023/01/14 15:37:07;;;;;;;2.13;0.60;;;7.60;99.90;;;;;;5006228;28;20299;-78
2023/01/14 15:39:39;;;;;;;1.43;0.80;;;7.70;99.90;;;;;;4999625;28;20196;-80
2023/01/14 15:42:06;;;;;;;1.10;0.67;;;7.60;99.90;;;;;;5004563;28;20971;-79
2023/01/14 15:44:36;;;;;;;1.30;1.00;;;7.70;99.90;;;;;;5003354;28;20180;-79